Time,TemperatureF,DewpointF,PressureIn,WindDirection,WindDirectionDegrees,WindSpeedMPH,WindSpeedGustMPH,Humidity,HourlyPrecipIn,Conditions,Clouds,dailyrainin,SoftwareType,DateUTC
2013-08-02 00:00:00,69.0,61.5,29.71,South,184,0.0,0.0,77,0.00,,,0.00,Weather View 32 v70,2013-08-02 05:00:00,
2013-08-02 00:10:00,68.7,61.2,29.69,SSE,162,0.0,0.0,77,0.00,,,0.00,Weather View 32 v70,2013-08-02 05:10:00,
2013-08-02 00:20:00,68.6,61.4,29.65,South,184,0.0,0.0,78,0.00,,,0.00,Weather View 32 v70,2013-08-02 05:20:00,
2013-08-02 00:25:00,68.5,61.3,29.68,South,184,0.0,0.0,78,0.00,,,0.00,Weather View 32 v70,2013-08-02 05:25:00,
2013-08-02 00:30:00,68.4,61.2,29.64,SSW,207,0.0,0.0,78,0.00,,,0.00,Weather View 32 v70,2013-08-02 05:30:00,
2013-08-02 00:39:00,68.2,61.1,29.69,SSE,162,0.0,0.0,78,0.00,,,0.00,Weather View 32 v70,2013-08-02 05:39:00,
2013-08-02 00:45:00,68.1,61.0,29.67,SW,229,0.0,0.0,78,0.00,,,0.00,Weather View 32 v70,2013-08-02 05:45:00,
2013-08-02 00:50:00,68.2,61.1,29.57,ENE,72,0.0,0.0,78,0.00,,,0.00,Weather View 32 v70,2013-08-02 05:50:00,
2013-08-02 00:55:00,68.2,60.7,29.68,SW,229,0.0,0.0,77,0.00,,,0.00,Weather View 32 v70,2013-08-02 05:55:00,
2013-08-02 01:05:00,68.2,60.3,29.63,NNW,342,0.0,0.0,76,0.00,,,0.00,Weather View 32 v70,2013-08-02 06:05:00,
2013-08-02 01:10:00,68.3,60.0,29.63,SW,229,0.0,0.0,75,0.00,,,0.00,Weather View 32 v70,2013-08-02 06:10:00,
2013-08-02 01:15:00,68.0,59.8,29.61,North,4,0.0,0.0,75,0.00,,,0.00,Weather View 32 v70,2013-08-02 06:15:00,
2013-08-02 01:25:00,67.5,58.9,29.69,West,274,0.0,0.0,74,0.00,,,0.00,Weather View 32 v70,2013-08-02 06:25:00,
2013-08-02 01:30:00,67.5,58.9,29.68,SW,229,0.0,0.0,74,0.00,,,0.00,Weather View 32 v70,2013-08-02 06:30:00,
2013-08-02 01:35:00,67.5,58.9,29.69,NW,319,0.0,0.0,74,0.00,,,0.00,Weather View 32 v70,2013-08-02 06:35:00,
2013-08-02 01:40:00,67.6,58.6,29.69,NW,319,0.0,0.0,73,0.00,,,0.00,Weather View 32 v70,2013-08-02 06:40:00,
2013-08-02 01:50:00,67.5,58.5,29.57,NW,319,0.0,0.0,73,0.00,,,0.00,Weather View 32 v70,2013-08-02 06:50:00,
2013-08-02 01:55:00,67.6,58.6,29.70,West,274,0.0,0.0,73,0.00,,,0.00,Weather View 32 v70,2013-08-02 06:55:00,
2013-08-02 02:04:00,67.3,58.3,29.70,SE,139,0.0,0.0,73,0.00,,,0.00,Weather View 32 v70,2013-08-02 07:04:00,
2013-08-02 02:09:00,67.1,58.1,29.60,SSW,207,0.0,0.0,73,0.00,,,0.00,Weather View 32 v70,2013-08-02 07:09:00,
2013-08-02 02:15:00,66.9,57.9,29.58,SW,229,0.0,0.0,73,0.00,,,0.00,Weather View 32 v70,2013-08-02 07:15:00,
2013-08-02 02:20:00,66.7,58.1,29.70,SSW,207,0.0,0.0,74,0.00,,,0.00,Weather View 32 v70,2013-08-02 07:20:00,
2013-08-02 02:30:00,65.8,57.3,29.59,SSW,207,0.0,0.0,74,0.00,,,0.00,Weather View 32 v70,2013-08-02 07:30:00,
2013-08-02 02:35:00,65.5,57.7,29.70,SSE,162,0.0,0.0,76,0.00,,,0.00,Weather View 32 v70,2013-08-02 07:35:00,
2013-08-02 02:40:00,64.6,57.6,29.70,SSW,207,0.0,0.0,78,0.00,,,0.00,Weather View 32 v70,2013-08-02 07:40:00,
2013-08-02 02:45:00,64.3,57.6,29.71,SSW,207,0.0,0.0,79,0.00,,,0.00,Weather View 32 v70,2013-08-02 07:45:00,
2013-08-02 02:55:00,63.7,58.1,29.68,WNW,297,0.0,0.0,82,0.00,,,0.00,Weather View 32 v70,2013-08-02 07:55:00,
2013-08-02 03:00:00,63.4,58.1,29.70,WNW,297,0.0,0.0,83,0.00,,,0.00,Weather View 32 v70,2013-08-02 08:00:00,
2013-08-02 03:05:00,63.3,58.0,29.71,South,184,0.0,0.0,83,0.00,,,0.00,Weather View 32 v70,2013-08-02 08:05:00,
2013-08-02 03:15:00,63.1,58.2,29.66,SSW,207,0.0,0.0,84,0.00,,,0.00,Weather View 32 v70,2013-08-02 08:15:00,
2013-08-02 03:20:00,63.0,58.4,29.66,South,184,0.0,0.0,85,0.00,,,0.00,Weather View 32 v70,2013-08-02 08:20:00,
2013-08-02 03:25:00,62.9,58.3,29.62,SSE,162,0.0,0.0,85,0.00,,,0.00,Weather View 32 v70,2013-08-02 08:25:00,
2013-08-02 03:30:00,62.8,58.5,29.61,SSW,207,0.0,0.0,86,0.00,,,0.00,Weather View 32 v70,2013-08-02 08:30:00,
2013-08-02 03:35:00,62.7,58.4,29.66,South,184,0.0,0.0,86,0.00,,,0.00,Weather View 32 v70,2013-08-02 08:35:00,
2013-08-02 03:41:00,62.8,58.5,29.65,South,184,0.0,0.0,86,0.00,,,0.00,Weather View 32 v70,2013-08-02 08:41:00,
2013-08-02 03:50:00,63.0,58.7,29.63,South,184,0.0,0.0,86,0.00,,,0.00,Weather View 32 v70,2013-08-02 08:50:00,
2013-08-02 03:55:00,62.7,58.4,29.68,ESE,117,0.0,0.0,86,0.00,,,0.00,Weather View 32 v70,2013-08-02 08:55:00,
2013-08-02 04:00:00,62.9,58.6,29.62,North,4,0.0,0.0,86,0.00,,,0.00,Weather View 32 v70,2013-08-02 09:00:00,
2013-08-02 04:10:00,63.4,59.1,29.71,SSE,162,0.0,0.0,86,0.00,,,0.00,Weather View 32 v70,2013-08-02 09:10:00,
2013-08-02 04:15:00,63.5,58.9,29.70,SSE,162,0.0,0.0,85,0.00,,,0.00,Weather View 32 v70,2013-08-02 09:15:00,
2013-08-02 04:20:00,63.7,58.8,29.71,NNW,342,0.0,0.0,84,0.00,,,0.00,Weather View 32 v70,2013-08-02 09:20:00,
2013-08-02 04:30:00,63.9,57.6,29.71,NNW,342,0.0,0.0,80,0.00,,,0.00,Weather View 32 v70,2013-08-02 09:30:00,
2013-08-02 04:35:00,63.6,56.9,29.69,NNW,342,0.0,0.0,79,0.00,,,0.00,Weather View 32 v70,2013-08-02 09:35:00,
2013-08-02 04:40:00,64.3,57.3,29.70,North,4,0.0,0.0,78,0.00,,,0.00,Weather View 32 v70,2013-08-02 09:40:00,
2013-08-02 04:50:00,64.2,56.5,29.70,SSW,207,0.0,0.0,76,0.00,,,0.00,Weather View 32 v70,2013-08-02 09:50:00,
2013-08-02 05:00:00,63.7,56.0,29.69,SSW,207,0.0,0.0,76,0.00,,,0.00,Weather View 32 v70,2013-08-02 10:00:00,
2013-08-02 05:05:00,63.2,55.8,29.70,NNE,27,0.0,0.0,77,0.00,,,0.00,Weather View 32 v70,2013-08-02 10:05:00,
2013-08-02 05:10:00,62.9,55.6,29.48,NNE,27,0.0,0.0,77,0.00,,,0.00,Weather View 32 v70,2013-08-02 10:10:00,
2013-08-02 05:20:00,63.1,56.1,29.71,North,4,0.0,0.0,78,0.00,,,0.00,Weather View 32 v70,2013-08-02 10:20:00,
2013-08-02 05:25:00,63.0,55.7,29.71,NW,319,0.0,0.0,77,0.00,,,0.00,Weather View 32 v70,2013-08-02 10:25:00,
2013-08-02 05:30:00,63.0,55.7,29.72,NW,319,0.0,0.0,77,0.00,,,0.00,Weather View 32 v70,2013-08-02 10:30:00,
2013-08-02 05:40:00,62.9,55.6,29.72,South,184,0.0,0.0,77,0.00,,,0.00,Weather View 32 v70,2013-08-02 10:40:00,
2013-08-02 05:44:00,62.8,55.5,29.67,South,184,0.0,0.0,77,0.00,,,0.00,Weather View 32 v70,2013-08-02 10:44:00,
2013-08-02 05:55:00,62.7,55.7,29.69,NW,319,0.0,0.0,78,0.00,,,0.00,Weather View 32 v70,2013-08-02 10:55:00,
2013-08-02 06:00:00,62.8,55.8,29.62,NW,319,0.0,0.0,78,0.00,,,0.00,Weather View 32 v70,2013-08-02 11:00:00,
2013-08-02 06:05:00,62.6,55.3,29.72,NW,319,0.0,0.0,77,0.00,,,0.00,Weather View 32 v70,2013-08-02 11:05:00,
2013-08-02 06:15:00,62.5,55.5,29.71,NNW,342,0.0,0.0,78,0.00,,,0.00,Weather View 32 v70,2013-08-02 11:15:00,
2013-08-02 06:19:00,62.4,55.4,29.71,NW,319,0.0,0.0,78,0.00,,,0.00,Weather View 32 v70,2013-08-02 11:19:00,
2013-08-02 06:24:00,62.7,55.7,29.73,NNW,342,0.0,0.0,78,0.00,,,0.00,Weather View 32 v70,2013-08-02 11:24:00,
2013-08-02 06:30:00,62.5,55.5,29.70,NNE,27,0.0,0.0,78,0.00,,,0.00,Weather View 32 v70,2013-08-02 11:30:00,
2013-08-02 06:35:00,62.3,55.3,29.72,NNW,342,0.0,0.0,78,0.00,,,0.00,Weather View 32 v70,2013-08-02 11:35:00,
2013-08-02 06:43:00,62.4,55.8,29.64,NW,319,0.0,0.0,79,0.00,,,0.00,Weather View 32 v70,2013-08-02 11:43:00,
2013-08-02 06:50:00,62.6,56.0,29.70,NW,319,0.0,0.0,79,0.00,,,0.00,Weather View 32 v70,2013-08-02 11:50:00,
2013-08-02 06:55:00,62.9,56.3,29.59,NW,319,0.0,0.0,79,0.00,,,0.00,Weather View 32 v70,2013-08-02 11:55:00,
2013-08-02 07:05:00,63.3,56.3,29.57,NNW,342,0.0,0.0,78,0.00,,,0.00,Weather View 32 v70,2013-08-02 12:05:00,
2013-08-02 07:10:00,63.4,56.0,29.64,NW,319,0.0,0.0,77,0.00,,,0.00,Weather View 32 v70,2013-08-02 12:10:00,
2013-08-02 07:20:00,63.7,56.3,29.72,NW,319,0.0,0.0,77,0.00,,,0.00,Weather View 32 v70,2013-08-02 12:20:00,
2013-08-02 07:29:00,64.1,56.7,29.72,NW,319,0.0,0.0,77,0.00,,,0.00,Weather View 32 v70,2013-08-02 12:29:00,
2013-08-02 07:35:00,64.3,56.6,29.60,NW,319,0.0,0.0,76,0.00,,,0.00,Weather View 32 v70,2013-08-02 12:35:00,
2013-08-02 07:43:00,64.7,56.9,29.55,WNW,297,0.0,0.0,76,0.00,,,0.00,Weather View 32 v70,2013-08-02 12:43:00,
2013-08-02 07:50:00,65.0,56.9,29.64,NW,319,0.0,0.0,75,0.00,,,0.00,Weather View 32 v70,2013-08-02 12:50:00,
2013-08-02 07:55:00,65.1,56.6,29.68,West,274,0.0,0.0,74,0.00,,,0.00,Weather View 32 v70,2013-08-02 12:55:00,
2013-08-02 08:00:00,65.5,57.3,29.65,WNW,297,0.0,0.0,75,0.00,,,0.00,Weather View 32 v70,2013-08-02 13:00:00,
2013-08-02 08:05:00,65.7,57.2,29.46,NW,319,0.0,0.0,74,0.00,,,0.00,Weather View 32 v70,2013-08-02 13:05:00,
2013-08-02 08:15:00,66.4,57.5,29.55,WNW,297,0.0,0.0,73,0.00,,,0.00,Weather View 32 v70,2013-08-02 13:15:00,
2013-08-02 08:19:00,66.7,57.7,29.45,WNW,297,0.0,0.0,73,0.00,,,0.00,Weather View 32 v70,2013-08-02 13:19:00,
2013-08-02 08:25:00,66.7,57.0,29.67,NW,319,0.0,0.0,71,0.00,,,0.00,Weather View 32 v70,2013-08-02 13:25:00,
2013-08-02 08:30:00,66.9,57.2,29.61,NNW,342,0.0,0.0,71,0.00,,,0.00,Weather View 32 v70,2013-08-02 13:30:00,
2013-08-02 08:39:00,67.3,57.2,29.62,NW,319,0.0,0.0,70,0.00,,,0.00,Weather View 32 v70,2013-08-02 13:39:00,
2013-08-02 08:45:00,68.0,57.4,29.47,NNW,342,0.0,0.0,69,0.00,,,0.00,Weather View 32 v70,2013-08-02 13:45:00,
2013-08-02 08:54:00,69.2,58.6,29.40,NNW,342,0.0,0.0,69,0.00,,,0.00,Weather View 32 v70,2013-08-02 13:54:00,
2013-08-02 08:59:00,68.6,57.6,29.49,NW,319,0.0,0.0,68,0.00,,,0.00,Weather View 32 v70,2013-08-02 13:59:00,
2013-08-02 09:10:00,69.1,57.6,29.49,NW,319,0.0,0.0,67,0.00,,,0.00,Weather View 32 v70,2013-08-02 14:10:00,
2013-08-02 09:15:00,69.5,57.6,29.43,NW,319,0.0,0.0,66,0.00,,,0.00,Weather View 32 v70,2013-08-02 14:15:00,
2013-08-02 09:20:00,69.4,57.5,29.50,NNW,342,0.0,0.0,66,0.00,,,0.00,Weather View 32 v70,2013-08-02 14:20:00,
2013-08-02 09:30:00,69.6,56.8,29.42,WNW,297,0.0,0.0,64,0.00,,,0.00,Weather View 32 v70,2013-08-02 14:30:00,
2013-08-02 09:35:00,69.8,57.5,29.61,NNW,342,0.0,0.0,65,0.00,,,0.00,Weather View 32 v70,2013-08-02 14:35:00,
2013-08-02 09:40:00,69.8,57.0,29.57,NNE,27,0.0,0.0,64,0.00,,,0.00,Weather View 32 v70,2013-08-02 14:40:00,
2013-08-02 09:50:00,70.3,57.9,29.43,North,4,0.0,0.0,65,0.00,,,0.00,Weather View 32 v70,2013-08-02 14:50:00,
2013-08-02 09:55:00,70.9,58.5,29.46,NNW,342,0.0,0.0,65,0.00,,,0.00,Weather View 32 v70,2013-08-02 14:55:00,
2013-08-02 10:04:00,71.2,57.5,29.62,NW,319,0.0,0.0,62,0.00,,,0.00,Weather View 32 v70,2013-08-02 15:04:00,
2013-08-02 10:10:00,71.6,57.8,29.42,WSW,252,0.0,0.0,62,0.00,,,0.00,Weather View 32 v70,2013-08-02 15:10:00,
2013-08-02 10:19:00,71.2,56.6,29.52,NW,319,0.0,0.0,60,0.00,,,0.00,Weather View 32 v70,2013-08-02 15:19:00,
2013-08-02 10:25:00,71.3,56.2,29.47,WNW,297,0.0,0.0,59,0.00,,,0.00,Weather View 32 v70,2013-08-02 15:25:00,
2013-08-02 10:30:00,71.3,55.2,29.76,NW,319,0.0,0.0,57,0.00,,,0.00,Weather View 32 v70,2013-08-02 15:30:00,
2013-08-02 10:40:00,71.3,55.7,29.60,NW,319,0.0,0.0,58,0.00,,,0.00,Weather View 32 v70,2013-08-02 15:40:00,
2013-08-02 10:45:00,71.4,56.3,29.72,NW,319,0.0,0.0,59,0.00,,,0.00,Weather View 32 v70,2013-08-02 15:45:00,
2013-08-02 10:55:00,71.2,54.7,29.74,WNW,297,0.0,0.0,56,0.00,,,0.00,Weather View 32 v70,2013-08-02 15:55:00,
2013-08-02 11:00:00,71.2,54.2,29.75,WNW,297,0.0,0.0,55,0.00,,,0.00,Weather View 32 v70,2013-08-02 16:00:00,
2013-08-02 11:10:00,71.5,54.4,29.76,NW,319,0.0,0.0,55,0.00,,,0.00,Weather View 32 v70,2013-08-02 16:10:00,
2013-08-02 11:15:00,71.8,55.2,29.73,NNW,342,0.0,0.0,56,0.00,,,0.00,Weather View 32 v70,2013-08-02 16:15:00,
2013-08-02 11:25:00,72.1,55.5,29.74,NW,319,0.0,0.0,56,0.00,,,0.00,Weather View 32 v70,2013-08-02 16:25:00,
2013-08-02 11:30:00,72.1,54.5,29.75,NW,319,0.0,0.0,54,0.00,,,0.00,Weather View 32 v70,2013-08-02 16:30:00,
2013-08-02 11:40:00,72.7,55.0,29.74,NNW,342,0.0,0.0,54,0.00,,,0.00,Weather View 32 v70,2013-08-02 16:40:00,
2013-08-02 11:45:00,72.5,54.3,29.68,NW,319,0.0,0.0,53,0.00,,,0.00,Weather View 32 v70,2013-08-02 16:45:00,
2013-08-02 11:55:00,72.9,54.2,29.66,NW,319,0.0,0.0,52,0.00,,,0.00,Weather View 32 v70,2013-08-02 16:55:00,
2013-08-02 12:00:00,72.9,53.7,29.64,NW,319,0.0,0.0,51,0.00,,,0.00,Weather View 32 v70,2013-08-02 17:00:00,
2013-08-02 12:10:00,72.7,53.5,29.76,NNW,342,0.0,0.0,51,0.00,,,0.00,Weather View 32 v70,2013-08-02 17:10:00,
2013-08-02 12:15:00,73.3,54.6,29.68,WSW,252,0.0,0.0,52,0.00,,,0.00,Weather View 32 v70,2013-08-02 17:15:00,
2013-08-02 12:25:00,73.0,52.7,29.61,NW,319,0.0,0.0,49,0.00,,,0.00,Weather View 32 v70,2013-08-02 17:25:00,
2013-08-02 12:30:00,73.3,52.9,29.60,NW,319,0.0,0.0,49,0.00,,,0.00,Weather View 32 v70,2013-08-02 17:30:00,
2013-08-02 12:40:00,73.6,53.2,29.56,NW,319,0.0,0.0,49,0.00,,,0.00,Weather View 32 v70,2013-08-02 17:40:00,
2013-08-02 12:45:00,73.6,51.5,29.62,NW,319,0.0,0.0,46,0.00,,,0.00,Weather View 32 v70,2013-08-02 17:45:00,
2013-08-02 12:50:00,73.6,51.5,29.64,NNW,342,0.0,0.0,46,0.00,,,0.00,Weather View 32 v70,2013-08-02 17:50:00,
2013-08-02 13:00:00,73.4,49.5,29.66,NW,319,0.0,0.0,43,0.00,,,0.00,Weather View 32 v70,2013-08-02 18:00:00,
2013-08-02 13:05:00,73.4,51.3,29.64,WNW,297,0.0,0.0,46,0.00,,,0.00,Weather View 32 v70,2013-08-02 18:05:00,
2013-08-02 13:10:00,73.6,52.1,29.60,NW,319,0.0,0.0,47,0.00,,,0.00,Weather View 32 v70,2013-08-02 18:10:00,
2013-08-02 13:19:00,73.8,51.1,29.56,WNW,297,0.0,0.0,45,0.00,,,0.00,Weather View 32 v70,2013-08-02 18:19:00,
2013-08-02 13:25:00,74.0,51.2,29.58,NW,319,0.0,0.0,45,0.00,,,0.00,Weather View 32 v70,2013-08-02 18:25:00,
2013-08-02 13:34:00,73.6,51.5,29.56,NW,319,0.0,0.0,46,0.00,,,0.00,Weather View 32 v70,2013-08-02 18:34:00,
2013-08-02 13:45:00,74.1,51.3,29.67,West,274,0.0,0.0,45,0.00,,,0.00,Weather View 32 v70,2013-08-02 18:45:00,
2013-08-02 13:50:00,74.3,52.1,29.55,NNW,342,0.0,0.0,46,0.00,,,0.00,Weather View 32 v70,2013-08-02 18:50:00,
2013-08-02 13:55:00,74.1,51.3,29.65,SW,229,0.0,0.0,45,0.00,,,0.00,Weather View 32 v70,2013-08-02 18:55:00,
2013-08-02 14:00:00,74.1,51.3,29.64,NW,319,0.0,0.0,45,0.00,,,0.00,Weather View 32 v70,2013-08-02 19:00:00,
2013-08-02 14:10:00,74.6,52.4,29.61,NW,319,0.0,0.0,46,0.00,,,0.00,Weather View 32 v70,2013-08-02 19:10:00,
2013-08-02 14:15:00,74.5,51.7,29.70,NW,319,0.0,0.0,45,0.00,,,0.00,Weather View 32 v70,2013-08-02 19:15:00,
2013-08-02 14:25:00,73.8,51.7,29.58,NW,319,0.0,0.0,46,0.00,,,0.00,Weather View 32 v70,2013-08-02 19:25:00,
2013-08-02 14:30:00,73.4,51.3,29.62,NW,319,0.0,0.0,46,0.00,,,0.00,Weather View 32 v70,2013-08-02 19:30:00,
2013-08-02 14:34:00,73.9,51.8,29.64,NNW,342,0.0,0.0,46,0.00,,,0.00,Weather View 32 v70,2013-08-02 19:34:00,
2013-08-02 14:45:00,74.4,52.8,29.69,NW,319,0.0,0.0,47,0.00,,,0.00,Weather View 32 v70,2013-08-02 19:45:00,
2013-08-02 14:54:00,74.7,51.9,29.55,NW,319,0.0,0.0,45,0.00,,,0.00,Weather View 32 v70,2013-08-02 19:54:00,
2013-08-02 14:59:00,74.0,51.2,29.52,NNW,342,0.0,0.0,45,0.00,,,0.00,Weather View 32 v70,2013-08-02 19:59:00,
2013-08-02 15:10:00,74.8,51.4,29.70,NW,319,0.0,0.0,44,0.00,,,0.00,Weather View 32 v70,2013-08-02 20:10:00,
2013-08-02 15:15:00,74.4,50.4,29.69,NNW,342,0.0,0.0,43,0.00,,,0.00,Weather View 32 v70,2013-08-02 20:15:00,
2013-08-02 15:25:00,74.1,50.1,29.67,NW,319,0.0,0.0,43,0.00,,,0.00,Weather View 32 v70,2013-08-02 20:25:00,
2013-08-02 15:30:00,73.8,50.5,29.71,NW,319,0.0,0.0,44,0.00,,,0.00,Weather View 32 v70,2013-08-02 20:30:00,
2013-08-02 15:35:00,73.6,50.3,29.74,NW,319,0.0,0.0,44,0.00,,,0.00,Weather View 32 v70,2013-08-02 20:35:00,
2013-08-02 15:45:00,74.2,51.4,29.75,SW,229,0.0,0.0,45,0.00,,,0.00,Weather View 32 v70,2013-08-02 20:45:00,
2013-08-02 15:50:00,73.8,51.7,29.69,NNW,342,0.0,0.0,46,0.00,,,0.00,Weather View 32 v70,2013-08-02 20:50:00,
2013-08-02 16:00:00,73.2,52.3,29.67,West,274,0.0,0.0,48,0.00,,,0.00,Weather View 32 v70,2013-08-02 21:00:00,
2013-08-02 16:10:00,73.4,51.9,29.79,NNW,342,0.0,0.0,47,0.00,,,0.00,Weather View 32 v70,2013-08-02 21:10:00,
2013-08-02 16:15:00,73.2,52.3,29.70,NW,319,0.0,0.0,48,0.00,,,0.00,Weather View 32 v70,2013-08-02 21:15:00,
2013-08-02 16:20:00,73.3,51.2,29.75,NNW,342,0.0,0.0,46,0.00,,,0.00,Weather View 32 v70,2013-08-02 21:20:00,
2013-08-02 16:30:00,73.1,50.4,29.79,NW,319,0.0,0.0,45,0.00,,,0.00,Weather View 32 v70,2013-08-02 21:30:00,
2013-08-02 16:40:00,72.8,51.9,29.75,NW,319,0.0,0.0,48,0.00,,,0.00,Weather View 32 v70,2013-08-02 21:40:00,
2013-08-02 16:45:00,72.8,51.9,29.74,NW,319,0.0,0.0,48,0.00,,,0.00,Weather View 32 v70,2013-08-02 21:45:00,
2013-08-02 16:50:00,72.9,52.6,29.77,NW,319,0.0,0.0,49,0.00,,,0.00,Weather View 32 v70,2013-08-02 21:50:00,
2013-08-02 16:55:00,73.6,52.6,29.70,East,94,0.0,0.0,48,0.00,,,0.00,Weather View 32 v70,2013-08-02 21:55:00,
2013-08-02 17:05:00,73.2,51.7,29.77,NW,319,0.0,0.0,47,0.00,,,0.00,Weather View 32 v70,2013-08-02 22:05:00,
2013-08-02 17:10:00,73.3,51.2,29.76,NW,319,0.0,0.0,46,0.00,,,0.00,Weather View 32 v70,2013-08-02 22:10:00,
2013-08-02 17:15:00,73.3,52.4,29.73,NNW,342,0.0,0.0,48,0.00,,,0.00,Weather View 32 v70,2013-08-02 22:15:00,
2013-08-02 17:24:00,73.6,52.6,29.71,WNW,297,0.0,0.0,48,0.00,,,0.00,Weather View 32 v70,2013-08-02 22:24:00,
2013-08-02 17:30:00,74.0,52.4,29.76,NNW,342,0.0,0.0,47,0.00,,,0.00,Weather View 32 v70,2013-08-02 22:30:00,
2013-08-02 17:40:00,74.0,51.2,29.74,NNW,342,0.0,0.0,45,0.00,,,0.00,Weather View 32 v70,2013-08-02 22:40:00,
2013-08-02 17:45:00,74.6,52.4,29.74,West,274,0.0,0.0,46,0.00,,,0.00,Weather View 32 v70,2013-08-02 22:45:00,
2013-08-02 17:50:00,74.4,51.0,29.74,NW,319,0.0,0.0,44,0.00,,,0.00,Weather View 32 v70,2013-08-02 22:50:00,
2013-08-02 17:59:00,73.9,51.2,29.70,NW,319,0.0,0.0,45,0.00,,,0.00,Weather View 32 v70,2013-08-02 22:59:00,
2013-08-02 18:05:00,74.7,52.5,29.79,NW,319,0.0,0.0,46,0.00,,,0.00,Weather View 32 v70,2013-08-02 23:05:00,
2013-08-02 18:10:00,74.3,50.9,29.79,WNW,297,0.0,0.0,44,0.00,,,0.00,Weather View 32 v70,2013-08-02 23:10:00,
2013-08-02 18:20:00,73.5,52.0,29.79,West,274,0.0,0.0,47,0.00,,,0.00,Weather View 32 v70,2013-08-02 23:20:00,
2013-08-02 18:25:00,74.0,53.0,29.72,West,274,0.0,0.0,48,0.00,,,0.00,Weather View 32 v70,2013-08-02 23:25:00,
2013-08-02 18:30:00,73.3,52.4,29.76,NW,319,0.0,0.0,48,0.00,,,0.00,Weather View 32 v70,2013-08-02 23:30:00,
2013-08-02 18:39:00,73.3,52.4,29.80,NNW,342,0.0,0.0,48,0.00,,,0.00,Weather View 32 v70,2013-08-02 23:39:00,
2013-08-02 18:45:00,72.9,51.4,29.80,NW,319,0.0,0.0,47,0.00,,,0.00,Weather View 32 v70,2013-08-02 23:45:00,
2013-08-02 18:50:00,73.3,51.8,29.81,WNW,297,0.0,0.0,47,0.00,,,0.00,Weather View 32 v70,2013-08-02 23:50:00,
2013-08-02 18:59:00,73.3,51.2,29.76,NW,319,0.0,0.0,46,0.00,,,0.00,Weather View 32 v70,2013-08-02 23:59:00,
2013-08-02 19:09:00,72.8,51.9,29.75,NW,319,0.0,0.0,48,0.00,,,0.00,Weather View 32 v70,2013-08-03 00:09:00,
2013-08-02 19:14:00,72.7,52.4,29.80,WNW,297,0.0,0.0,49,0.00,,,0.00,Weather View 32 v70,2013-08-03 00:14:00,
2013-08-02 19:25:00,72.7,51.8,29.73,NW,319,0.0,0.0,48,0.00,,,0.00,Weather View 32 v70,2013-08-03 00:25:00,
2013-08-02 19:35:00,72.6,52.3,29.78,WSW,252,0.0,0.0,49,0.00,,,0.00,Weather View 32 v70,2013-08-03 00:35:00,
2013-08-02 19:45:00,72.1,51.8,29.77,WNW,297,0.0,0.0,49,0.00,,,0.00,Weather View 32 v70,2013-08-03 00:45:00,
2013-08-02 19:50:00,72.1,51.8,29.80,NW,319,0.0,0.0,49,0.00,,,0.00,Weather View 32 v70,2013-08-03 00:50:00,
2013-08-02 19:59:00,71.8,52.1,29.72,SW,229,0.0,0.0,50,0.00,,,0.00,Weather View 32 v70,2013-08-03 00:59:00,
2013-08-02 20:05:00,71.6,53.0,29.77,SW,229,0.0,0.0,52,0.00,,,0.00,Weather View 32 v70,2013-08-03 01:05:00,
2013-08-02 20:15:00,71.1,53.0,29.82,WSW,252,0.0,0.0,53,0.00,,,0.00,Weather View 32 v70,2013-08-03 01:15:00,
2013-08-02 20:19:00,71.3,52.2,29.81,NW,319,0.0,0.0,51,0.00,,,0.00,Weather View 32 v70,2013-08-03 01:19:00,
2013-08-02 20:25:00,71.3,52.2,29.82,WSW,252,0.0,0.0,51,0.00,,,0.00,Weather View 32 v70,2013-08-03 01:25:00,
2013-08-02 20:29:00,71.0,52.4,29.81,WSW,252,0.0,0.0,52,0.00,,,0.00,Weather View 32 v70,2013-08-03 01:29:00,
2013-08-02 20:40:00,70.3,53.3,29.78,WSW,252,0.0,0.0,55,0.00,,,0.00,Weather View 32 v70,2013-08-03 01:40:00,
2013-08-02 20:44:00,69.4,54.4,29.75,SSE,162,0.0,0.0,59,0.00,,,0.00,Weather View 32 v70,2013-08-03 01:44:00,
2013-08-02 20:51:00,68.5,55.4,29.68,ESE,117,0.0,0.0,63,0.00,,,0.00,Weather View 32 v70,2013-08-03 01:51:00,
2013-08-02 21:00:00,67.2,55.4,29.70,ENE,72,0.0,0.0,66,0.00,,,0.00,Weather View 32 v70,2013-08-03 02:00:00,
2013-08-02 21:10:00,66.4,55.5,29.78,SSE,162,0.0,0.0,68,0.00,,,0.00,Weather View 32 v70,2013-08-03 02:10:00,
2013-08-02 21:15:00,66.0,55.9,29.62,SSE,162,0.0,0.0,70,0.00,,,0.00,Weather View 32 v70,2013-08-03 02:15:00,
2013-08-02 21:24:00,65.4,55.7,29.83,SE,139,0.0,0.0,71,0.00,,,0.00,Weather View 32 v70,2013-08-03 02:24:00,
2013-08-02 21:34:00,64.8,55.1,29.82,SE,139,0.0,0.0,71,0.00,,,0.00,Weather View 32 v70,2013-08-03 02:34:00,
2013-08-02 21:45:00,64.3,54.7,29.85,SE,139,0.0,0.0,71,0.00,,,0.00,Weather View 32 v70,2013-08-03 02:45:00,
2013-08-02 21:51:00,64.0,54.4,29.85,SE,139,0.0,0.0,71,0.00,,,0.00,Weather View 32 v70,2013-08-03 02:51:00,
2013-08-02 22:00:00,63.6,54.0,29.85,SE,139,0.0,0.0,71,0.00,,,0.00,Weather View 32 v70,2013-08-03 03:00:00,
2013-08-02 22:05:00,63.4,53.8,29.85,SE,139,0.0,0.0,71,0.00,,,0.00,Weather View 32 v70,2013-08-03 03:05:00,
2013-08-02 22:15:00,63.0,53.8,29.85,SE,139,0.0,0.0,72,0.00,,,0.00,Weather View 32 v70,2013-08-03 03:15:00,
2013-08-02 22:20:00,62.8,53.6,29.79,SE,139,0.0,0.0,72,0.00,,,0.00,Weather View 32 v70,2013-08-03 03:20:00,
2013-08-02 22:25:00,62.7,53.9,29.86,SE,139,0.0,0.0,73,0.00,,,0.00,Weather View 32 v70,2013-08-03 03:25:00,
2013-08-02 22:35:00,62.4,53.6,29.82,SE,139,0.0,0.0,73,0.00,,,0.00,Weather View 32 v70,2013-08-03 03:35:00,
2013-08-02 22:40:00,62.3,53.5,29.84,SSE,162,0.0,0.0,73,0.00,,,0.00,Weather View 32 v70,2013-08-03 03:40:00,
2013-08-02 22:45:00,62.1,53.3,29.87,SSE,162,0.0,0.0,73,0.00,,,0.00,Weather View 32 v70,2013-08-03 03:45:00,
2013-08-02 22:52:00,62.0,53.6,29.83,SSE,162,0.0,0.0,74,0.00,,,0.00,Weather View 32 v70,2013-08-03 03:52:00,
2013-08-02 22:59:00,61.8,53.4,29.87,SE,139,0.0,0.0,74,0.00,,,0.00,Weather View 32 v70,2013-08-03 03:59:00,
2013-08-02 23:04:00,61.7,53.3,29.87,SSE,162,0.0,0.0,74,0.00,,,0.00,Weather View 32 v70,2013-08-03 04:04:00,
2013-08-02 23:10:00,61.6,53.2,29.87,SSE,162,0.0,0.0,74,0.00,,,0.00,Weather View 32 v70,2013-08-03 04:10:00,
2013-08-02 23:15:00,61.5,53.5,29.87,South,184,0.0,0.0,75,0.00,,,0.00,Weather View 32 v70,2013-08-03 04:15:00,
2013-08-02 23:20:00,61.5,53.5,29.87,ESE,117,0.0,0.0,75,0.00,,,0.00,Weather View 32 v70,2013-08-03 04:20:00,
2013-08-02 23:30:00,61.5,53.8,29.87,ESE,117,0.0,0.0,76,0.00,,,0.00,Weather View 32 v70,2013-08-03 04:30:00,
2013-08-02 23:35:00,61.4,53.7,29.87,ESE,117,0.0,0.0,76,0.00,,,0.00,Weather View 32 v70,2013-08-03 04:35:00,
2013-08-02 23:40:00,61.3,53.7,29.87,ESE,117,0.0,0.0,76,0.00,,,0.00,Weather View 32 v70,2013-08-03 04:40:00,
2013-08-02 23:45:00,61.2,53.6,29.87,ESE,117,0.0,0.0,76,0.00,,,0.00,Weather View 32 v70,2013-08-03 04:45:00,
2013-08-02 23:50:00,61.1,53.8,29.87,ESE,117,0.0,0.0,77,0.00,,,0.00,Weather View 32 v70,2013-08-03 04:50:00,
2013-08-02 23:54:00,61.0,53.7,29.87,ESE,117,0.0,0.0,77,0.00,,,0.00,Weather View 32 v70,2013-08-03 04:54:00,